createdAt,value
2023-04-25T00:07:08.081Z,11.71
2023-04-25T00:17:12.506Z,11.65
2023-04-25T00:27:16.353Z,11.32
2023-04-25T00:37:21.004Z,10.88
2023-04-25T00:47:24.988Z,10.62
2023-04-25T00:57:30.343Z,10.57
2023-04-25T01:07:34.756Z,10.55
2023-04-25T01:17:38.135Z,10.48
2023-04-25T01:27:41.852Z,10.36
2023-04-25T01:37:46.396Z,10.23
2023-04-25T01:47:51.055Z,10.17
2023-04-25T01:57:54.298Z,10.18
2023-04-25T02:08:08.010Z,10.19
2023-04-25T02:18:12.377Z,10.12
2023-04-25T02:28:17.626Z,10.05
2023-04-25T02:38:20.838Z,10.04
2023-04-25T02:48:29.638Z,10.00
2023-04-25T02:58:35.602Z,9.93
2023-04-25T03:08:38.758Z,9.84
2023-04-25T03:18:42.101Z,9.86
2023-04-25T03:28:45.190Z,9.84
2023-04-25T03:38:49.736Z,9.89
2023-04-25T03:48:53.826Z,9.86
2023-04-25T03:59:00.625Z,9.76
2023-04-25T04:09:04.623Z,9.69
2023-04-25T04:19:12.507Z,9.63
2023-04-25T04:29:22.370Z,9.58
2023-04-25T04:39:37.153Z,9.39
2023-04-25T04:49:47.488Z,9.26
2023-04-25T05:00:11.864Z,9.23
2023-04-25T05:10:53.774Z,9.24
2023-04-25T05:21:08.666Z,9.29
2023-04-25T05:31:44.017Z,9.32
2023-04-25T05:41:50.923Z,9.36
2023-04-25T05:52:12.490Z,9.37
2023-04-25T06:02:38.760Z,9.42
2023-04-25T06:12:44.498Z,9.41
2023-04-25T06:22:51.073Z,9.25
2023-04-25T06:32:54.455Z,9.19
2023-04-25T06:42:58.268Z,9.16
2023-04-25T06:53:43.625Z,9.27
2023-04-25T07:04:01.034Z,9.42
2023-04-25T07:14:40.959Z,9.70
2023-04-25T07:24:54.371Z,9.76
2023-04-25T07:34:58.651Z,9.58
2023-04-25T07:45:03.832Z,9.77
2023-04-25T07:55:07.119Z,10.31
2023-04-25T08:05:22.790Z,10.37
2023-04-25T08:15:31.018Z,10.43
2023-04-25T08:25:34.907Z,10.46
2023-04-25T08:35:38.842Z,10.51
2023-04-25T08:45:43.701Z,10.45
2023-04-25T08:55:51.566Z,10.33
2023-04-25T09:05:56.613Z,10.17
2023-04-25T09:16:00.177Z,10.04
2023-04-25T09:26:27.160Z,10.09
2023-04-25T09:36:31.896Z,10.26
2023-04-25T09:46:54.974Z,10.61
2023-04-25T09:57:12.722Z,11.15
2023-04-25T10:07:16.509Z,11.43
2023-04-25T10:17:21.954Z,11.82
2023-04-25T10:27:25.121Z,12.14
2023-04-25T10:37:28.271Z,12.38
2023-04-25T10:47:38.312Z,12.50
2023-04-25T10:57:47.346Z,12.52
2023-04-25T11:08:03.995Z,12.44
2023-04-25T11:18:11.122Z,12.13
2023-04-25T11:28:14.413Z,12.14
2023-04-25T11:38:17.611Z,12.58
2023-04-25T11:48:24.141Z,12.77
2023-04-25T11:58:29.787Z,12.80
2023-04-25T12:08:34.058Z,12.64
2023-04-25T12:18:38.224Z,12.28
2023-04-25T12:28:48.419Z,11.99
2023-04-25T12:38:52.879Z,11.70
2023-04-25T12:48:58.769Z,11.35
2023-04-25T12:59:06.040Z,11.17
2023-04-25T13:09:11.578Z,11.06
2023-04-25T13:19:14.727Z,11.38
2023-04-25T13:29:19.814Z,11.70
2023-04-25T13:39:24.979Z,11.99
2023-04-25T13:49:29.039Z,11.95
2023-04-25T13:59:32.629Z,11.60
2023-04-25T14:09:39.107Z,11.06
2023-04-25T14:19:59.688Z,10.63
2023-04-25T14:30:03.189Z,10.23
2023-04-25T14:40:20.040Z,10.07
2023-04-25T14:50:36.475Z,10.02
2023-04-25T15:00:42.277Z,10.06
2023-04-25T15:10:47.748Z,9.95
2023-04-25T15:20:56.057Z,9.67
2023-04-25T15:30:59.768Z,9.97
2023-04-25T15:41:04.806Z,10.38
2023-04-25T15:51:11.023Z,10.63
2023-04-25T16:01:14.337Z,10.86
2023-04-25T16:11:17.623Z,10.84
2023-04-25T16:21:21.450Z,10.73
2023-04-25T16:31:28.636Z,10.59
2023-04-25T16:41:42.964Z,10.56
2023-04-25T16:51:47.357Z,10.60
2023-04-25T17:02:27.888Z,10.61
2023-04-25T17:12:32.307Z,10.52
2023-04-25T17:22:43.600Z,10.08
2023-04-25T17:33:04.957Z,9.68
2023-04-25T17:43:18.908Z,9.38
2023-04-25T17:53:27.858Z,9.06
2023-04-25T18:03:36.195Z,8.84
2023-04-25T18:13:41.022Z,8.51
2023-04-25T18:23:46.823Z,8.44
2023-04-25T18:33:53.053Z,8.39
2023-04-25T18:44:19.320Z,8.23
2023-04-25T18:54:23.120Z,8.12
2023-04-25T19:04:29.448Z,7.86
2023-04-25T19:14:39.849Z,7.60
2023-04-25T19:24:48.715Z,7.29
2023-04-25T19:35:09.675Z,7.03
2023-04-25T19:56:38.185Z,7.04
2023-04-25T20:06:59.966Z,6.82
2023-04-25T20:17:15.244Z,6.69
2023-04-25T20:27:26.063Z,6.54
2023-04-25T20:37:34.831Z,6.53
2023-04-25T20:47:41.081Z,6.59
2023-04-25T20:57:58.206Z,6.67
2023-04-25T21:08:08.919Z,6.68
2023-04-25T21:18:12.363Z,6.64
2023-04-25T21:28:15.608Z,6.51
2023-04-25T21:38:18.898Z,6.39
2023-04-25T21:48:22.349Z,6.36
2023-04-25T21:58:25.445Z,6.37
2023-04-25T22:08:28.963Z,6.50
2023-04-25T22:18:32.404Z,6.64
2023-04-25T22:28:35.943Z,6.81
2023-04-25T22:38:41.151Z,6.94
2023-04-25T22:48:46.013Z,6.94
2023-04-25T22:58:50.989Z,6.88
2023-04-25T23:08:54.631Z,6.86
2023-04-25T23:18:57.881Z,6.88
2023-04-25T23:29:01.040Z,6.97
2023-04-25T23:39:05.020Z,7.07
2023-04-25T23:49:08.055Z,7.06
2023-04-25T23:59:11.470Z,7.05
